Boreham, United Kingdom
Current Conditions -  °F | °C
As of 7:50 PM on Sunday 21 Dec 2014 (Local Time) from EGDM Reporting Station
Overcast Overcast  
Wind Chill: 52°   Ceiling: 800
Heat Index: 52°   Visibility: 6mi
Dew Point: 48°   Wind: 17mph
Humidity: 88%   Direction: 220°SW
Pressure: 30.24"   Gusts: NA
Location:  51.2°N, 2.17°W
Report Text: EGDM 211950Z AUTO 22015KT 9999 OVC008/// 11/09 Q1024
Loading
Personal Weather Stations






























Interactive Weather Map New forecast layout! Learn more

10-Day Weather Forecast

Advertisements
Track Severe Weather on mobile